sensor_id;sensor_type;location;lat;lon;timestamp;temperature;humidity
75217;HTU21D;63800;51.972;5.682;2023-05-10T00:00:11;13.45;111.38
75217;HTU21D;63800;51.972;5.682;2023-05-10T00:02:37;13.24;113.27
75217;HTU21D;63800;51.972;5.682;2023-05-10T00:05:03;13.40;113.17
75217;HTU21D;63800;51.972;5.682;2023-05-10T00:07:29;13.25;113.39
75217;HTU21D;63800;51.972;5.682;2023-05-10T00:09:54;13.26;113.75
75217;HTU21D;63800;51.972;5.682;2023-05-10T00:12:20;13.25;113.76
75217;HTU21D;63800;51.972;5.682;2023-05-10T00:14:45;13.24;113.84
75217;HTU21D;63800;51.972;5.682;2023-05-10T00:17:10;13.38;113.73
75217;HTU21D;63800;51.972;5.682;2023-05-10T00:19:36;13.46;111.81
75217;HTU21D;63800;51.972;5.682;2023-05-10T00:22:01;13.29;113.26
75217;HTU21D;63800;51.972;5.682;2023-05-10T00:24:27;13.35;114.25
75217;HTU21D;63800;51.972;5.682;2023-05-10T00:26:52;13.43;112.92
75217;HTU21D;63800;51.972;5.682;2023-05-10T00:29:18;13.33;113.54
75217;HTU21D;63800;51.972;5.682;2023-05-10T00:31:43;13.36;112.34
75217;HTU21D;63800;51.972;5.682;2023-05-10T00:34:08;13.38;113.03
75217;HTU21D;63800;51.972;5.682;2023-05-10T00:36:34;13.61;111.26
75217;HTU21D;63800;51.972;5.682;2023-05-10T00:38:59;13.35;113.43
75217;HTU21D;63800;51.972;5.682;2023-05-10T00:41:25;13.41;113.38
75217;HTU21D;63800;51.972;5.682;2023-05-10T00:43:51;13.40;113.39
75217;HTU21D;63800;51.972;5.682;2023-05-10T00:46:16;13.50;111.71
75217;HTU21D;63800;51.972;5.682;2023-05-10T00:48:43;13.40;112.34
75217;HTU21D;63800;51.972;5.682;2023-05-10T00:51:08;13.32;113.29
75217;HTU21D;63800;51.972;5.682;2023-05-10T00:53:34;13.27;114.67
75217;HTU21D;63800;51.972;5.682;2023-05-10T00:56:00;13.30;114.74
75217;HTU21D;63800;51.972;5.682;2023-05-10T00:58:27;13.48;112.40
75217;HTU21D;63800;51.972;5.682;2023-05-10T01:00:55;13.38;113.55
75217;HTU21D;63800;51.972;5.682;2023-05-10T01:03:22;13.26;115.40
75217;HTU21D;63800;51.972;5.682;2023-05-10T01:05:47;13.16;116.73
75217;HTU21D;63800;51.972;5.682;2023-05-10T01:08:13;13.38;115.09
75217;HTU21D;63800;51.972;5.682;2023-05-10T01:10:38;13.51;113.54
75217;HTU21D;63800;51.972;5.682;2023-05-10T01:13:04;13.51;113.42
75217;HTU21D;63800;51.972;5.682;2023-05-10T01:15:30;13.56;113.03
75217;HTU21D;63800;51.972;5.682;2023-05-10T01:17:56;13.36;114.78
75217;HTU21D;63800;51.972;5.682;2023-05-10T01:20:22;13.55;113.80
75217;HTU21D;63800;51.972;5.682;2023-05-10T01:25:46;13.45;115.35
75217;HTU21D;63800;51.972;5.682;2023-05-10T01:31:21;13.24;116.22
75217;HTU21D;63800;51.972;5.682;2023-05-10T01:34:13;13.30;116.09
75217;HTU21D;63800;51.972;5.682;2023-05-10T01:36:48;13.11;117.12
75217;HTU21D;63800;51.972;5.682;2023-05-10T01:39:27;13.11;117.25
75217;HTU21D;63800;51.972;5.682;2023-05-10T01:42:08;13.20;116.59
75217;HTU21D;63800;51.972;5.682;2023-05-10T01:47:38;13.16;116.53
75217;HTU21D;63800;51.972;5.682;2023-05-10T01:50:10;13.12;117.16
75217;HTU21D;63800;51.972;5.682;2023-05-10T01:52:42;13.11;116.82
75217;HTU21D;63800;51.972;5.682;2023-05-10T01:55:11;13.33;115.25
75217;HTU21D;63800;51.972;5.682;2023-05-10T01:57:40;13.23;115.99
75217;HTU21D;63800;51.972;5.682;2023-05-10T02:00:08;13.35;115.20
75217;HTU21D;63800;51.972;5.682;2023-05-10T02:02:40;13.35;114.30
75217;HTU21D;63800;51.972;5.682;2023-05-10T02:05:08;13.27;114.95
75217;HTU21D;63800;51.972;5.682;2023-05-10T02:07:36;13.37;114.42
75217;HTU21D;63800;51.972;5.682;2023-05-10T02:10:02;13.33;115.18
75217;HTU21D;63800;51.972;5.682;2023-05-10T02:12:31;13.06;116.25
75217;HTU21D;63800;51.972;5.682;2023-05-10T02:14:57;13.18;115.06
75217;HTU21D;63800;51.972;5.682;2023-05-10T02:17:25;13.23;115.25
75217;HTU21D;63800;51.972;5.682;2023-05-10T02:19:51;13.05;116.15
75217;HTU21D;63800;51.972;5.682;2023-05-10T02:22:19;13.20;114.91
75217;HTU21D;63800;51.972;5.682;2023-05-10T02:24:46;13.17;114.84
75217;HTU21D;63800;51.972;5.682;2023-05-10T02:27:13;13.17;115.18
75217;HTU21D;63800;51.972;5.682;2023-05-10T02:29:39;13.35;114.06
75217;HTU21D;63800;51.972;5.682;2023-05-10T02:32:06;13.15;114.39
75217;HTU21D;63800;51.972;5.682;2023-05-10T02:34:31;13.33;113.38
75217;HTU21D;63800;51.972;5.682;2023-05-10T02:36:59;13.10;114.35
75217;HTU21D;63800;51.972;5.682;2023-05-10T02:39:26;13.17;113.27
75217;HTU21D;63800;51.972;5.682;2023-05-10T02:41:53;13.23;112.44
75217;HTU21D;63800;51.972;5.682;2023-05-10T02:44:22;13.11;112.77
75217;HTU21D;63800;51.972;5.682;2023-05-10T02:46:48;13.14;113.56
75217;HTU21D;63800;51.972;5.682;2023-05-10T02:49:14;13.07;113.32
75217;HTU21D;63800;51.972;5.682;2023-05-10T02:51:44;13.20;111.59
75217;HTU21D;63800;51.972;5.682;2023-05-10T02:54:27;13.11;112.16
75217;HTU21D;63800;51.972;5.682;2023-05-10T02:56:57;13.18;112.52
75217;HTU21D;63800;51.972;5.682;2023-05-10T02:59:22;13.09;110.84
75217;HTU21D;63800;51.972;5.682;2023-05-10T03:01:48;13.03;110.94
75217;HTU21D;63800;51.972;5.682;2023-05-10T03:04:13;13.07;110.71
75217;HTU21D;63800;51.972;5.682;2023-05-10T03:06:39;13.00;110.33
75217;HTU21D;63800;51.972;5.682;2023-05-10T03:09:05;12.81;111.84
75217;HTU21D;63800;51.972;5.682;2023-05-10T03:14:16;13.01;111.30
75217;HTU21D;63800;51.972;5.682;2023-05-10T03:16:47;13.07;111.23
75217;HTU21D;63800;51.972;5.682;2023-05-10T03:21:50;13.05;110.79
75217;HTU21D;63800;51.972;5.682;2023-05-10T03:24:16;13.05;110.36
75217;HTU21D;63800;51.972;5.682;2023-05-10T03:26:44;12.85;112.33
75217;HTU21D;63800;51.972;5.682;2023-05-10T03:29:12;12.85;112.06
75217;HTU21D;63800;51.972;5.682;2023-05-10T03:31:39;12.96;111.21
75217;HTU21D;63800;51.972;5.682;2023-05-10T03:34:04;12.69;112.30
75217;HTU21D;63800;51.972;5.682;2023-05-10T03:36:30;12.79;112.45
75217;HTU21D;63800;51.972;5.682;2023-05-10T03:38:55;12.73;112.39
75217;HTU21D;63800;51.972;5.682;2023-05-10T03:41:21;12.69;112.22
75217;HTU21D;63800;51.972;5.682;2023-05-10T03:43:46;12.74;112.65
75217;HTU21D;63800;51.972;5.682;2023-05-10T03:46:12;12.77;111.98
75217;HTU21D;63800;51.972;5.682;2023-05-10T03:48:37;12.70;111.91
75217;HTU21D;63800;51.972;5.682;2023-05-10T03:51:02;12.63;113.48
75217;HTU21D;63800;51.972;5.682;2023-05-10T03:53:28;12.76;111.96
75217;HTU21D;63800;51.972;5.682;2023-05-10T03:55:54;12.89;111.81
75217;HTU21D;63800;51.972;5.682;2023-05-10T03:58:19;13.00;111.39
75217;HTU21D;63800;51.972;5.682;2023-05-10T04:00:45;12.94;111.38
75217;HTU21D;63800;51.972;5.682;2023-05-10T04:03:13;12.81;112.57
75217;HTU21D;63800;51.972;5.682;2023-05-10T04:05:39;12.78;113.09
75217;HTU21D;63800;51.972;5.682;2023-05-10T04:08:05;12.90;113.35
75217;HTU21D;63800;51.972;5.682;2023-05-10T04:10:31;12.90;113.13
75217;HTU21D;63800;51.972;5.682;2023-05-10T04:12:57;12.96;111.55
75217;HTU21D;63800;51.972;5.682;2023-05-10T04:15:22;12.80;111.98
75217;HTU21D;63800;51.972;5.682;2023-05-10T04:17:48;12.85;113.03
75217;HTU21D;63800;51.972;5.682;2023-05-10T04:20:14;12.81;112.64
75217;HTU21D;63800;51.972;5.682;2023-05-10T04:22:39;12.89;112.35
75217;HTU21D;63800;51.972;5.682;2023-05-10T04:25:06;12.85;111.87
75217;HTU21D;63800;51.972;5.682;2023-05-10T04:27:32;12.91;111.90
75217;HTU21D;63800;51.972;5.682;2023-05-10T04:29:57;12.85;112.26
75217;HTU21D;63800;51.972;5.682;2023-05-10T04:32:23;12.95;110.62
75217;HTU21D;63800;51.972;5.682;2023-05-10T04:34:49;12.80;111.11
75217;HTU21D;63800;51.972;5.682;2023-05-10T04:37:14;12.99;111.38
75217;HTU21D;63800;51.972;5.682;2023-05-10T04:39:40;13.03;110.07
75217;HTU21D;63800;51.972;5.682;2023-05-10T04:42:05;13.01;111.52
75217;HTU21D;63800;51.972;5.682;2023-05-10T04:44:31;13.24;109.60
75217;HTU21D;63800;51.972;5.682;2023-05-10T04:46:57;13.25;107.61
75217;HTU21D;63800;51.972;5.682;2023-05-10T04:49:23;13.11;110.69
75217;HTU21D;63800;51.972;5.682;2023-05-10T04:51:48;13.00;111.37
75217;HTU21D;63800;51.972;5.682;2023-05-10T04:54:13;12.94;111.11
75217;HTU21D;63800;51.972;5.682;2023-05-10T04:56:39;13.01;111.03
75217;HTU21D;63800;51.972;5.682;2023-05-10T04:59:06;13.14;109.91
75217;HTU21D;63800;51.972;5.682;2023-05-10T05:01:31;13.34;108.16
75217;HTU21D;63800;51.972;5.682;2023-05-10T05:03:56;13.09;110.24
75217;HTU21D;63800;51.972;5.682;2023-05-10T05:06:22;13.05;110.46
75217;HTU21D;63800;51.972;5.682;2023-05-10T05:08:49;13.20;109.41
75217;HTU21D;63800;51.972;5.682;2023-05-10T05:11:15;12.95;110.23
75217;HTU21D;63800;51.972;5.682;2023-05-10T05:13:40;12.95;110.49
75217;HTU21D;63800;51.972;5.682;2023-05-10T05:16:06;13.07;109.97
75217;HTU21D;63800;51.972;5.682;2023-05-10T05:18:32;13.10;110.00
75217;HTU21D;63800;51.972;5.682;2023-05-10T05:20:57;13.16;110.53
75217;HTU21D;63800;51.972;5.682;2023-05-10T05:23:22;13.15;110.87
75217;HTU21D;63800;51.972;5.682;2023-05-10T05:25:51;13.29;109.20
75217;HTU21D;63800;51.972;5.682;2023-05-10T05:28:17;13.12;110.83
75217;HTU21D;63800;51.972;5.682;2023-05-10T05:30:43;13.24;108.86
75217;HTU21D;63800;51.972;5.682;2023-05-10T05:33:08;12.94;112.03
75217;HTU21D;63800;51.972;5.682;2023-05-10T05:35:34;12.99;111.00
75217;HTU21D;63800;51.972;5.682;2023-05-10T05:37:59;12.82;112.03
75217;HTU21D;63800;51.972;5.682;2023-05-10T05:40:25;12.95;112.74
75217;HTU21D;63800;51.972;5.682;2023-05-10T05:42:50;12.78;112.26
75217;HTU21D;63800;51.972;5.682;2023-05-10T05:45:15;12.73;113.30
75217;HTU21D;63800;51.972;5.682;2023-05-10T05:47:41;13.01;111.46
75217;HTU21D;63800;51.972;5.682;2023-05-10T05:50:07;12.90;112.10
75217;HTU21D;63800;51.972;5.682;2023-05-10T05:52:33;13.09;111.74
75217;HTU21D;63800;51.972;5.682;2023-05-10T05:54:58;13.14;110.84
75217;HTU21D;63800;51.972;5.682;2023-05-10T05:57:24;12.86;113.87
75217;HTU21D;63800;51.972;5.682;2023-05-10T05:59:51;12.91;113.58
75217;HTU21D;63800;51.972;5.682;2023-05-10T06:02:17;13.04;112.61
75217;HTU21D;63800;51.972;5.682;2023-05-10T06:04:42;13.04;112.34
75217;HTU21D;63800;51.972;5.682;2023-05-10T06:07:08;13.07;112.54
75217;HTU21D;63800;51.972;5.682;2023-05-10T06:09:33;12.97;113.12
75217;HTU21D;63800;51.972;5.682;2023-05-10T06:11:59;13.04;112.23
75217;HTU21D;63800;51.972;5.682;2023-05-10T06:14:24;13.04;114.18
75217;HTU21D;63800;51.972;5.682;2023-05-10T06:16:50;13.19;112.41
75217;HTU21D;63800;51.972;5.682;2023-05-10T06:19:15;13.21;111.05
75217;HTU21D;63800;51.972;5.682;2023-05-10T06:21:41;13.11;111.26
75217;HTU21D;63800;51.972;5.682;2023-05-10T06:24:06;13.24;109.87
75217;HTU21D;63800;51.972;5.682;2023-05-10T06:26:32;13.25;110.33
75217;HTU21D;63800;51.972;5.682;2023-05-10T06:28:57;13.07;111.27
75217;HTU21D;63800;51.972;5.682;2023-05-10T06:31:23;13.29;109.82
75217;HTU21D;63800;51.972;5.682;2023-05-10T06:33:48;13.08;111.49
75217;HTU21D;63800;51.972;5.682;2023-05-10T06:36:14;13.29;111.18
75217;HTU21D;63800;51.972;5.682;2023-05-10T06:38:39;13.08;111.88
75217;HTU21D;63800;51.972;5.682;2023-05-10T06:41:05;12.97;112.76
75217;HTU21D;63800;51.972;5.682;2023-05-10T06:43:31;13.21;111.48
75217;HTU21D;63800;51.972;5.682;2023-05-10T06:45:56;12.94;113.62
75217;HTU21D;63800;51.972;5.682;2023-05-10T06:48:22;13.01;114.19
75217;HTU21D;63800;51.972;5.682;2023-05-10T06:50:48;13.11;113.71
75217;HTU21D;63800;51.972;5.682;2023-05-10T06:53:13;13.08;114.48
75217;HTU21D;63800;51.972;5.682;2023-05-10T06:55:39;13.06;112.66
75217;HTU21D;63800;51.972;5.682;2023-05-10T06:58:04;13.16;114.04
75217;HTU21D;63800;51.972;5.682;2023-05-10T07:00:30;13.08;113.94
75217;HTU21D;63800;51.972;5.682;2023-05-10T07:02:55;13.12;114.51
75217;HTU21D;63800;51.972;5.682;2023-05-10T07:05:21;13.12;111.75
75217;HTU21D;63800;51.972;5.682;2023-05-10T07:07:47;12.90;114.47
75217;HTU21D;63800;51.972;5.682;2023-05-10T07:10:12;12.87;114.27
75217;HTU21D;63800;51.972;5.682;2023-05-10T07:12:38;13.04;114.50
75217;HTU21D;63800;51.972;5.682;2023-05-10T07:15:04;13.00;113.52
75217;HTU21D;63800;51.972;5.682;2023-05-10T07:17:30;13.23;112.51
75217;HTU21D;63800;51.972;5.682;2023-05-10T07:19:55;13.19;113.30
75217;HTU21D;63800;51.972;5.682;2023-05-10T07:22:21;13.39;111.10
75217;HTU21D;63800;51.972;5.682;2023-05-10T07:24:46;13.38;111.05
75217;HTU21D;63800;51.972;5.682;2023-05-10T07:27:12;13.40;110.55
75217;HTU21D;63800;51.972;5.682;2023-05-10T07:29:38;13.27;111.20
75217;HTU21D;63800;51.972;5.682;2023-05-10T07:32:04;13.44;109.59
75217;HTU21D;63800;51.972;5.682;2023-05-10T07:34:30;13.48;107.75
75217;HTU21D;63800;51.972;5.682;2023-05-10T07:36:58;13.40;109.62
75217;HTU21D;63800;51.972;5.682;2023-05-10T07:39:24;13.53;110.15
75217;HTU21D;63800;51.972;5.682;2023-05-10T07:41:49;13.73;109.83
75217;HTU21D;63800;51.972;5.682;2023-05-10T07:44:15;13.65;108.88
75217;HTU21D;63800;51.972;5.682;2023-05-10T07:46:43;13.51;106.11
75217;HTU21D;63800;51.972;5.682;2023-05-10T07:49:08;13.66;105.08
75217;HTU21D;63800;51.972;5.682;2023-05-10T07:51:34;13.86;103.38
75217;HTU21D;63800;51.972;5.682;2023-05-10T07:53:59;13.64;104.33
75217;HTU21D;63800;51.972;5.682;2023-05-10T07:56:31;13.65;104.33
75217;HTU21D;63800;51.972;5.682;2023-05-10T07:58:58;13.56;105.11
75217;HTU21D;63800;51.972;5.682;2023-05-10T08:01:24;13.58;104.59
75217;HTU21D;63800;51.972;5.682;2023-05-10T08:03:51;13.36;103.35
75217;HTU21D;63800;51.972;5.682;2023-05-10T08:06:18;13.51;103.66
75217;HTU21D;63800;51.972;5.682;2023-05-10T08:08:46;13.29;103.76
75217;HTU21D;63800;51.972;5.682;2023-05-10T08:11:15;13.16;103.76
75217;HTU21D;63800;51.972;5.682;2023-05-10T08:13:41;13.36;103.55
75217;HTU21D;63800;51.972;5.682;2023-05-10T08:16:06;13.41;105.81
75217;HTU21D;63800;51.972;5.682;2023-05-10T08:18:32;13.37;104.40
75217;HTU21D;63800;51.972;5.682;2023-05-10T08:20:57;13.25;105.92
75217;HTU21D;63800;51.972;5.682;2023-05-10T08:23:23;13.50;102.47
75217;HTU21D;63800;51.972;5.682;2023-05-10T08:25:48;13.53;100.86
75217;HTU21D;63800;51.972;5.682;2023-05-10T08:28:14;13.68;98.29
75217;HTU21D;63800;51.972;5.682;2023-05-10T08:30:39;13.88;98.56
75217;HTU21D;63800;51.972;5.682;2023-05-10T08:33:04;13.95;97.03
75217;HTU21D;63800;51.972;5.682;2023-05-10T08:35:30;13.96;95.86
75217;HTU21D;63800;51.972;5.682;2023-05-10T08:37:56;14.05;97.39
75217;HTU21D;63800;51.972;5.682;2023-05-10T08:40:22;14.09;93.49
75217;HTU21D;63800;51.972;5.682;2023-05-10T08:43:10;13.96;95.88
75217;HTU21D;63800;51.972;5.682;2023-05-10T08:45:40;14.28;93.83
75217;HTU21D;63800;51.972;5.682;2023-05-10T08:48:08;14.22;93.27
75217;HTU21D;63800;51.972;5.682;2023-05-10T08:50:36;14.36;94.04
75217;HTU21D;63800;51.972;5.682;2023-05-10T08:53:04;14.17;91.47
75217;HTU21D;63800;51.972;5.682;2023-05-10T08:55:30;14.51;92.75
75217;HTU21D;63800;51.972;5.682;2023-05-10T08:57:58;14.59;91.99
75217;HTU21D;63800;51.972;5.682;2023-05-10T09:00:23;14.45;88.80
75217;HTU21D;63800;51.972;5.682;2023-05-10T09:02:49;14.66;90.12
75217;HTU21D;63800;51.972;5.682;2023-05-10T09:05:15;14.70;86.39
75217;HTU21D;63800;51.972;5.682;2023-05-10T09:07:41;14.87;87.16
75217;HTU21D;63800;51.972;5.682;2023-05-10T09:10:08;14.94;88.55
75217;HTU21D;63800;51.972;5.682;2023-05-10T09:12:34;14.88;88.39
75217;HTU21D;63800;51.972;5.682;2023-05-10T09:14:59;14.69;86.97
75217;HTU21D;63800;51.972;5.682;2023-05-10T09:17:25;14.53;85.75
75217;HTU21D;63800;51.972;5.682;2023-05-10T09:20:02;14.59;87.65
75217;HTU21D;63800;51.972;5.682;2023-05-10T09:22:30;14.59;90.89
75217;HTU21D;63800;51.972;5.682;2023-05-10T09:25:05;14.50;90.66
75217;HTU21D;63800;51.972;5.682;2023-05-10T09:27:30;14.62;88.13
75217;HTU21D;63800;51.972;5.682;2023-05-10T09:29:56;14.71;89.05
75217;HTU21D;63800;51.972;5.682;2023-05-10T09:35:14;15.02;86.19
75217;HTU21D;63800;51.972;5.682;2023-05-10T09:37:40;14.73;87.41
75217;HTU21D;63800;51.972;5.682;2023-05-10T09:40:22;14.75;87.80
75217;HTU21D;63800;51.972;5.682;2023-05-10T09:42:55;14.81;87.33
75217;HTU21D;63800;51.972;5.682;2023-05-10T09:45:23;14.95;88.09
75217;HTU21D;63800;51.972;5.682;2023-05-10T09:47:49;14.75;86.64
75217;HTU21D;63800;51.972;5.682;2023-05-10T09:50:14;14.70;87.44
75217;HTU21D;63800;51.972;5.682;2023-05-10T09:55:21;14.58;87.88
75217;HTU21D;63800;51.972;5.682;2023-05-10T09:57:48;14.69;88.02
75217;HTU21D;63800;51.972;5.682;2023-05-10T10:00:18;14.66;88.47
75217;HTU21D;63800;51.972;5.682;2023-05-10T10:02:48;14.66;89.62
75217;HTU21D;63800;51.972;5.682;2023-05-10T10:05:19;14.80;90.28
75217;HTU21D;63800;51.972;5.682;2023-05-10T10:07:45;14.85;90.05
75217;HTU21D;63800;51.972;5.682;2023-05-10T10:10:10;14.62;87.46
75217;HTU21D;63800;51.972;5.682;2023-05-10T10:12:38;14.84;87.25
75217;HTU21D;63800;51.972;5.682;2023-05-10T10:15:04;14.84;86.86
75217;HTU21D;63800;51.972;5.682;2023-05-10T10:17:32;14.86;87.84
75217;HTU21D;63800;51.972;5.682;2023-05-10T10:20:02;14.74;87.67
75217;HTU21D;63800;51.972;5.682;2023-05-10T10:22:28;14.75;86.87
75217;HTU21D;63800;51.972;5.682;2023-05-10T10:24:54;15.14;85.45
75217;HTU21D;63800;51.972;5.682;2023-05-10T10:27:24;15.13;86.85
75217;HTU21D;63800;51.972;5.682;2023-05-10T10:30:02;15.56;83.78
75217;HTU21D;63800;51.972;5.682;2023-05-10T10:35:45;15.25;83.08
75217;HTU21D;63800;51.972;5.682;2023-05-10T10:38:12;15.28;84.10
75217;HTU21D;63800;51.972;5.682;2023-05-10T10:40:38;15.48;82.29
75217;HTU21D;63800;51.972;5.682;2023-05-10T10:46:11;15.45;84.32
75217;HTU21D;63800;51.972;5.682;2023-05-10T10:48:38;15.59;85.85
75217;HTU21D;63800;51.972;5.682;2023-05-10T10:51:04;15.70;84.36
75217;HTU21D;63800;51.972;5.682;2023-05-10T10:53:29;15.67;87.70
75217;HTU21D;63800;51.972;5.682;2023-05-10T10:56:08;15.62;86.35
75217;HTU21D;63800;51.972;5.682;2023-05-10T10:58:36;15.32;87.38
75217;HTU21D;63800;51.972;5.682;2023-05-10T11:01:17;15.24;85.27
75217;HTU21D;63800;51.972;5.682;2023-05-10T11:04:18;15.14;89.16
75217;HTU21D;63800;51.972;5.682;2023-05-10T11:06:44;15.06;87.41
75217;HTU21D;63800;51.972;5.682;2023-05-10T11:09:11;14.97;89.86
75217;HTU21D;63800;51.972;5.682;2023-05-10T11:12:07;15.16;89.25
75217;HTU21D;63800;51.972;5.682;2023-05-10T11:14:33;15.10;86.77
75217;HTU21D;63800;51.972;5.682;2023-05-10T11:16:58;15.13;85.39
75217;HTU21D;63800;51.972;5.682;2023-05-10T11:19:27;15.43;84.16
75217;HTU21D;63800;51.972;5.682;2023-05-10T11:24:30;15.69;83.03
75217;HTU21D;63800;51.972;5.682;2023-05-10T11:26:56;15.88;84.03
75217;HTU21D;63800;51.972;5.682;2023-05-10T11:29:22;15.95;81.85
75217;HTU21D;63800;51.972;5.682;2023-05-10T11:31:48;15.81;81.95
75217;HTU21D;63800;51.972;5.682;2023-05-10T11:34:27;15.66;85.54
75217;HTU21D;63800;51.972;5.682;2023-05-10T11:36:55;15.63;87.68
75217;HTU21D;63800;51.972;5.682;2023-05-10T11:39:21;15.82;85.04
75217;HTU21D;63800;51.972;5.682;2023-05-10T11:41:50;15.73;85.04
75217;HTU21D;63800;51.972;5.682;2023-05-10T11:44:16;16.00;81.14
75217;HTU21D;63800;51.972;5.682;2023-05-10T11:46:41;16.08;80.46
75217;HTU21D;63800;51.972;5.682;2023-05-10T11:49:07;16.07;82.99
75217;HTU21D;63800;51.972;5.682;2023-05-10T11:51:36;16.34;80.39
75217;HTU21D;63800;51.972;5.682;2023-05-10T11:54:06;16.65;79.40
75217;HTU21D;63800;51.972;5.682;2023-05-10T11:56:33;16.81;78.38
75217;HTU21D;63800;51.972;5.682;2023-05-10T11:58:59;16.66;80.17
75217;HTU21D;63800;51.972;5.682;2023-05-10T12:01:28;16.55;80.43
75217;HTU21D;63800;51.972;5.682;2023-05-10T12:03:55;16.69;78.35
75217;HTU21D;63800;51.972;5.682;2023-05-10T12:06:28;16.93;81.33
75217;HTU21D;63800;51.972;5.682;2023-05-10T12:08:54;16.91;80.08
75217;HTU21D;63800;51.972;5.682;2023-05-10T12:11:20;16.33;77.12
75217;HTU21D;63800;51.972;5.682;2023-05-10T12:13:47;16.67;81.50
75217;HTU21D;63800;51.972;5.682;2023-05-10T12:16:18;16.70;76.57
75217;HTU21D;63800;51.972;5.682;2023-05-10T12:18:44;16.81;76.74
75217;HTU21D;63800;51.972;5.682;2023-05-10T12:21:11;17.15;75.76
75217;HTU21D;63800;51.972;5.682;2023-05-10T12:23:38;16.77;75.78
75217;HTU21D;63800;51.972;5.682;2023-05-10T12:26:04;17.02;75.63
75217;HTU21D;63800;51.972;5.682;2023-05-10T12:28:33;16.78;78.59
75217;HTU21D;63800;51.972;5.682;2023-05-10T12:31:02;17.01;78.45
75217;HTU21D;63800;51.972;5.682;2023-05-10T12:33:36;17.28;74.68
75217;HTU21D;63800;51.972;5.682;2023-05-10T12:36:04;17.25;73.67
75217;HTU21D;63800;51.972;5.682;2023-05-10T12:38:34;17.22;74.55
75217;HTU21D;63800;51.972;5.682;2023-05-10T12:41:02;16.91;74.43
75217;HTU21D;63800;51.972;5.682;2023-05-10T12:43:28;17.22;74.26
75217;HTU21D;63800;51.972;5.682;2023-05-10T12:45:54;17.07;75.33
75217;HTU21D;63800;51.972;5.682;2023-05-10T12:48:20;17.15;76.62
75217;HTU21D;63800;51.972;5.682;2023-05-10T12:50:45;16.99;77.24
75217;HTU21D;63800;51.972;5.682;2023-05-10T12:53:13;16.91;74.64
75217;HTU21D;63800;51.972;5.682;2023-05-10T12:55:39;16.71;75.47
75217;HTU21D;63800;51.972;5.682;2023-05-10T12:58:04;16.25;76.95
75217;HTU21D;63800;51.972;5.682;2023-05-10T13:00:30;16.31;77.21
75217;HTU21D;63800;51.972;5.682;2023-05-10T13:02:56;16.34;77.46
75217;HTU21D;63800;51.972;5.682;2023-05-10T13:05:21;16.39;77.49
75217;HTU21D;63800;51.972;5.682;2023-05-10T13:07:46;16.14;80.82
75217;HTU21D;63800;51.972;5.682;2023-05-10T13:10:12;15.93;84.10
75217;HTU21D;63800;51.972;5.682;2023-05-10T13:12:37;15.73;83.89
75217;HTU21D;63800;51.972;5.682;2023-05-10T13:15:03;15.38;85.44
75217;HTU21D;63800;51.972;5.682;2023-05-10T13:17:29;14.83;87.48
75217;HTU21D;63800;51.972;5.682;2023-05-10T13:19:54;14.99;86.11
75217;HTU21D;63800;51.972;5.682;2023-05-10T13:22:20;15.19;86.70
75217;HTU21D;63800;51.972;5.682;2023-05-10T13:24:45;14.82;88.29
75217;HTU21D;63800;51.972;5.682;2023-05-10T13:27:11;15.11;87.82
75217;HTU21D;63800;51.972;5.682;2023-05-10T13:29:36;15.10;87.96
75217;HTU21D;63800;51.972;5.682;2023-05-10T13:32:02;15.16;87.52
75217;HTU21D;63800;51.972;5.682;2023-05-10T13:34:27;14.84;90.21
75217;HTU21D;63800;51.972;5.682;2023-05-10T13:36:53;14.93;94.28
75217;HTU21D;63800;51.972;5.682;2023-05-10T13:39:20;14.86;94.71
75217;HTU21D;63800;51.972;5.682;2023-05-10T13:41:46;14.99;95.89
75217;HTU21D;63800;51.972;5.682;2023-05-10T13:44:12;14.94;98.64
75217;HTU21D;63800;51.972;5.682;2023-05-10T13:46:39;14.84;100.46
75217;HTU21D;63800;51.972;5.682;2023-05-10T13:49:04;14.73;100.51
75217;HTU21D;63800;51.972;5.682;2023-05-10T13:51:30;14.70;102.99
75217;HTU21D;63800;51.972;5.682;2023-05-10T13:53:57;14.78;104.48
75217;HTU21D;63800;51.972;5.682;2023-05-10T13:56:22;14.72;103.30
75217;HTU21D;63800;51.972;5.682;2023-05-10T13:58:48;14.62;105.79
75217;HTU21D;63800;51.972;5.682;2023-05-10T14:01:13;14.48;104.79
75217;HTU21D;63800;51.972;5.682;2023-05-10T14:03:39;14.21;104.96
75217;HTU21D;63800;51.972;5.682;2023-05-10T14:06:04;14.47;105.43
75217;HTU21D;63800;51.972;5.682;2023-05-10T14:08:30;14.44;104.28
75217;HTU21D;63800;51.972;5.682;2023-05-10T14:10:55;14.41;104.04
75217;HTU21D;63800;51.972;5.682;2023-05-10T14:13:22;14.32;106.39
75217;HTU21D;63800;51.972;5.682;2023-05-10T14:15:47;14.48;105.43
75217;HTU21D;63800;51.972;5.682;2023-05-10T14:18:12;14.48;106.33
75217;HTU21D;63800;51.972;5.682;2023-05-10T14:20:38;14.57;107.91
75217;HTU21D;63800;51.972;5.682;2023-05-10T14:23:03;14.52;106.05
75217;HTU21D;63800;51.972;5.682;2023-05-10T14:25:29;14.40;105.33
75217;HTU21D;63800;51.972;5.682;2023-05-10T14:27:54;14.43;106.86
75217;HTU21D;63800;51.972;5.682;2023-05-10T14:30:20;14.42;106.05
75217;HTU21D;63800;51.972;5.682;2023-05-10T14:32:46;14.72;105.31
75217;HTU21D;63800;51.972;5.682;2023-05-10T14:35:11;14.86;103.80
75217;HTU21D;63800;51.972;5.682;2023-05-10T14:37:38;15.07;102.75
75217;HTU21D;63800;51.972;5.682;2023-05-10T14:40:04;15.17;102.41
75217;HTU21D;63800;51.972;5.682;2023-05-10T14:42:30;15.21;101.83
75217;HTU21D;63800;51.972;5.682;2023-05-10T14:44:56;15.09;100.02
75217;HTU21D;63800;51.972;5.682;2023-05-10T14:47:21;15.14;99.45
75217;HTU21D;63800;51.972;5.682;2023-05-10T14:49:47;15.01;96.20
75217;HTU21D;63800;51.972;5.682;2023-05-10T14:52:12;15.25;99.13
75217;HTU21D;63800;51.972;5.682;2023-05-10T14:54:39;15.52;93.91
75217;HTU21D;63800;51.972;5.682;2023-05-10T14:57:05;15.57;95.11
75217;HTU21D;63800;51.972;5.682;2023-05-10T14:59:31;15.71;97.83
75217;HTU21D;63800;51.972;5.682;2023-05-10T15:01:57;15.71;96.94
75217;HTU21D;63800;51.972;5.682;2023-05-10T15:04:22;15.76;93.82
75217;HTU21D;63800;51.972;5.682;2023-05-10T15:06:48;15.56;97.73
75217;HTU21D;63800;51.972;5.682;2023-05-10T15:09:13;15.78;95.42
75217;HTU21D;63800;51.972;5.682;2023-05-10T15:11:38;15.19;99.41
75217;HTU21D;63800;51.972;5.682;2023-05-10T15:14:04;15.33;96.05
75217;HTU21D;63800;51.972;5.682;2023-05-10T15:16:29;15.17;96.76
75217;HTU21D;63800;51.972;5.682;2023-05-10T15:18:55;15.18;100.05
75217;HTU21D;63800;51.972;5.682;2023-05-10T15:21:20;15.58;96.89
75217;HTU21D;63800;51.972;5.682;2023-05-10T15:23:46;15.75;94.98
75217;HTU21D;63800;51.972;5.682;2023-05-10T15:26:12;15.86;94.97
75217;HTU21D;63800;51.972;5.682;2023-05-10T15:28:37;15.77;96.67
75217;HTU21D;63800;51.972;5.682;2023-05-10T15:31:03;15.72;96.84
75217;HTU21D;63800;51.972;5.682;2023-05-10T15:33:28;16.00;96.32